Time;durP1;ratioP1;P1;durP2;ratioP2;P2;SDS_P1;SDS_P2;PMS_P1;PMS_P2;Temp;Humidity;BMP_temperature;BMP_pressure;BME280_temperature;BME280_humidity;BME280_pressure;Samples;Min_cycle;Max_cycle;Signal;HPM_P1;HPM_P2
2021/12/12 00:01:53;;;;;;;25.82;18.17;;;;;;;6.33;85.89;100873.52;1691423;83;21056;-67
2021/12/12 00:04:31;;;;;;;;;;;;;;;6.34;85.92;100873.05;1718368;83;20949;-66
2021/12/12 00:06:54;;;;;;;24.65;17.45;;;;;;;6.31;85.94;100888.50;1715844;83;20400;-66
2021/12/12 00:09:29;;;;;;;25.52;16.60;;;;;;;6.24;85.99;100872.70;1701744;82;20976;-67
2021/12/12 00:11:56;;;;;;;26.33;17.20;;;;;;;6.22;86.06;100889.83;1737485;81;21819;-66
2021/12/12 00:14:32;;;;;;;25.88;17.87;;;;;;;6.21;86.10;100878.11;1721819;82;21024;-66
2021/12/12 00:16:58;;;;;;;26.87;18.07;;;;;;;6.22;86.10;100885.05;1734905;82;20952;-67
2021/12/12 00:19:26;;;;;;;25.32;19.73;;;;;;;6.21;86.15;100893.39;1692147;82;21051;-66
2021/12/12 00:21:55;;;;;;;25.60;18.77;;;;;;;6.23;86.15;100892.84;1730062;82;20960;-66
2021/12/12 00:24:21;;;;;;;22.98;17.12;;;;;;;6.25;86.17;100890.13;1745173;81;21858;-66
2021/12/12 00:26:50;;;;;;;25.30;19.12;;;;;;;6.27;86.17;100877.77;1733323;81;21385;-66
2021/12/12 00:29:17;;;;;;;25.35;17.90;;;;;;;6.28;86.14;100882.11;1679532;84;21015;-68
2021/12/12 00:31:45;;;;;;;24.02;17.40;;;;;;;6.31;86.13;100888.03;1686907;85;21055;-66
2021/12/12 00:34:12;;;;;;;23.45;17.15;;;;;;;6.32;86.09;100892.81;1682518;84;21016;-67
2021/12/12 00:36:41;;;;;;;22.27;16.77;;;;;;;6.33;86.06;100886.63;1668751;85;21827;-66
2021/12/12 00:39:17;;;;;;;25.30;18.77;;;;;;;6.33;86.03;100887.09;1677057;85;21000;-66
2021/12/12 00:41:58;;;;;;;28.90;18.20;;;;;;;6.34;85.99;100877.83;1667167;84;21023;-67
2021/12/12 00:44:26;;;;;;;23.65;17.23;;;;;;;6.34;85.97;100879.61;1654081;85;21040;-66
2021/12/12 00:46:56;;;;;;;23.38;17.65;;;;;;;6.38;85.98;100877.22;1650444;84;21078;-67
2021/12/12 00:49:22;;;;;;;26.80;17.65;;;;;;;6.38;85.93;100875.91;1664234;85;21879;-68
2021/12/12 00:51:50;;;;;;;25.95;18.92;;;;;;;6.36;85.88;100869.88;1666283;84;21019;-67
2021/12/12 00:54:17;;;;;;;32.58;21.73;;;;;;;6.35;85.83;100877.36;1666631;85;21032;-67
2021/12/12 00:56:44;;;;;;;35.25;23.27;;;;;;;6.32;85.73;100878.38;1671249;86;21550;-66
2021/12/12 00:59:12;;;;;;;33.40;23.77;;;;;;;6.29;85.69;100872.00;1670956;85;21035;-66
2021/12/12 01:01:50;;;;;;;32.60;22.60;;;;;;;6.26;85.66;100882.17;1696572;83;21857;-66
2021/12/12 01:04:22;;;;;;;40.75;25.97;;;;;;;6.23;85.63;100891.52;1669566;84;21043;-66
2021/12/12 01:06:49;;;;;;;36.00;24.37;;;;;;;6.22;85.59;100900.79;1693043;84;21370;-66
2021/12/12 01:09:21;;;;;;;39.42;26.35;;;;;;;6.19;85.51;100909.67;1693409;84;21007;-66
2021/12/12 01:11:50;;;;;;;35.90;25.60;;;;;;;6.16;85.53;100908.97;1738380;81;20986;-67
2021/12/12 01:14:22;;;;;;;36.30;24.32;;;;;;;6.17;85.55;100909.34;1725612;81;21810;-66
2021/12/12 01:17:06;;;;;;;35.40;26.77;;;;;;;6.13;85.45;100913.92;1749514;82;21392;-66
2021/12/12 01:19:51;;;;;;;41.58;26.77;;;;;;;6.08;85.38;100908.09;1713602;82;21037;-65
2021/12/12 01:22:25;;;;;;;34.67;24.92;;;;;;;6.04;85.37;100905.22;1710716;81;21490;-67
2021/12/12 01:24:52;;;;;;;35.28;24.60;;;;;;;6.03;85.40;100903.06;1692937;83;20960;-66
2021/12/12 01:27:19;;;;;;;32.78;24.27;;;;;;;6.01;85.38;100909.33;1689995;83;22217;-66
2021/12/12 01:29:47;;;;;;;37.23;25.97;;;;;;;5.98;85.35;100911.65;1699640;81;21557;-67
2021/12/12 01:32:23;;;;;;;33.70;24.57;;;;;;;5.97;85.36;100915.63;1761706;81;21106;-66
2021/12/12 01:34:44;;;;;;;32.53;24.45;;;;;;;5.95;85.36;100914.87;1719459;83;21039;-66
2021/12/12 01:40:02;;;;;;;31.30;24.70;;;;;;;5.92;85.35;100902.78;1730133;81;21888;-65
2021/12/12 01:42:36;;;;;;;32.67;24.07;;;;;;;5.91;85.36;100909.42;1752537;81;21459;-65
2021/12/12 01:45:15;;;;;;;38.65;28.00;;;;;;;5.89;85.33;100912.55;1728013;82;21546;-67
2021/12/12 01:47:54;;;;;;;32.33;25.30;;;;;;;5.84;85.29;100909.30;1715892;83;20985;-66
2021/12/12 01:50:32;;;;;;;35.85;26.90;;;;;;;5.83;85.31;100918.09;1739256;81;20995;-66
2021/12/12 01:52:59;;;;;;;39.98;29.05;;;;;;;5.81;85.34;100918.64;1727731;81;21851;-66
2021/12/12 01:55:31;;;;;;;32.23;25.23;;;;;;;5.82;85.40;100919.88;1714640;81;21431;-66
2021/12/12 01:58:00;;;;;;;37.53;28.20;;;;;;;5.84;85.38;100921.10;1729041;81;21059;-66
2021/12/12 02:00:32;;;;;;;37.40;25.80;;;;;;;5.84;85.37;100922.41;1725223;83;21494;-66
2021/12/12 02:02:59;;;;;;;35.78;26.35;;;;;;;5.83;85.33;100923.34;1725561;82;20976;-66
2021/12/12 02:05:27;;;;;;;38.88;27.62;;;;;;;5.80;85.29;100924.81;1718439;83;21769;-66
2021/12/12 02:08:03;;;;;;;38.45;26.35;;;;;;;5.79;85.35;100924.41;1726599;81;21050;-66
2021/12/12 02:10:37;;;;;;;35.98;25.43;;;;;;;5.80;85.35;100924.81;1698260;83;21126;-66
2021/12/12 02:13:06;;;;;;;39.88;25.37;;;;;;;5.80;85.34;100929.59;1751927;81;21050;-67
2021/12/12 02:15:35;;;;;;;36.58;24.82;;;;;;;5.79;85.31;100934.45;1718427;83;21040;-66
2021/12/12 02:18:07;;;;;;;35.40;23.80;;;;;;;5.75;85.29;100939.45;1727951;81;22477;-66
2021/12/12 02:20:40;;;;;;;35.80;22.87;;;;;;;5.72;85.29;100935.22;1726355;83;21046;-66
2021/12/12 02:23:19;;;;;;;35.78;22.42;;;;;;;5.69;85.31;100936.70;1729224;81;20956;-66
2021/12/12 02:36:47;;;;;;;28.10;20.50;;;;;;;5.57;85.39;100929.42;1730647;81;22255;-66
2021/12/12 02:39:18;;;;;;;27.37;18.30;;;;;;;5.56;85.40;100935.59;1728452;83;21074;-67
2021/12/12 02:41:51;;;;;;;30.17;20.08;;;;;;;5.55;85.40;100935.67;1725442;83;21509;-66
2021/12/12 02:44:23;;;;;;;33.13;22.02;;;;;;;5.50;85.37;100928.05;1726586;81;21805;-66
2021/12/12 02:46:49;;;;;;;32.00;22.15;;;;;;;5.46;85.41;100924.72;1698293;81;21082;-66
2021/12/12 02:52:01;;;;;;;33.73;21.60;;;;;;;5.44;85.47;100930.50;1749094;81;20986;-66
2021/12/12 02:54:27;;;;;;;28.75;20.37;;;;;;;5.44;85.48;100925.72;1704389;81;21493;-66
2021/12/12 02:56:54;;;;;;;34.88;21.02;;;;;;;5.44;85.48;100936.20;1729883;81;21843;-66
2021/12/12 02:59:23;;;;;;;37.48;20.55;;;;;;;5.40;85.45;100929.40;1728812;81;21008;-66
2021/12/12 03:01:55;;;;;;;37.33;22.15;;;;;;;5.36;85.44;100927.41;1716395;81;21410;-66
2021/12/12 03:04:23;;;;;;;36.85;22.42;;;;;;;5.33;85.46;100930.19;1741957;81;20959;-66
2021/12/12 03:06:49;;;;;;;34.50;22.67;;;;;;;5.30;85.47;100928.16;1719106;81;21016;-66
2021/12/12 03:09:24;;;;;;;41.10;24.55;;;;;;;5.29;85.49;100935.63;1748737;81;21792;-66
2021/12/12 03:11:59;;;;;;;33.13;20.75;;;;;;;5.28;85.50;100944.41;1688933;83;21353;-66
2021/12/12 03:14:32;;;;;;;31.27;21.93;;;;;;;5.26;85.52;100950.19;1750329;81;21428;-66
2021/12/12 03:17:03;;;;;;;30.90;22.00;;;;;;;5.21;85.50;100949.55;1753593;81;21006;-66
2021/12/12 03:19:32;;;;;;;29.63;20.05;;;;;;;5.22;85.56;100962.59;1743494;81;21045;-66
2021/12/12 03:21:58;;;;;;;28.85;20.85;;;;;;;5.24;85.56;100955.97;1753878;81;21937;-65
2021/12/12 03:24:26;;;;;;;26.97;19.92;;;;;;;5.21;85.55;100962.21;1750926;81;21445;-65
2021/12/12 03:26:56;;;;;;;29.40;19.82;;;;;;;5.18;85.50;100959.72;1746623;81;20983;-65
2021/12/12 03:29:24;;;;;;;28.02;19.17;;;;;;;5.15;85.49;100954.17;1725332;81;21098;-66
2021/12/12 03:31:57;;;;;;;30.65;19.62;;;;;;;5.11;85.52;100956.53;1747877;81;21003;-65
2021/12/12 03:34:28;;;;;;;24.05;17.45;;;;;;;5.08;85.49;100955.37;1732049;81;21816;-67
2021/12/12 03:36:57;;;;;;;26.97;19.15;;;;;;;5.05;85.51;100954.69;1734177;81;20998;-65
2021/12/12 03:39:28;;;;;;;28.27;19.07;;;;;;;5.04;85.54;100960.84;1731178;81;21532;-67
2021/12/12 03:41:57;;;;;;;29.45;20.70;;;;;;;5.04;85.61;100949.91;1721093;81;21010;-66
2021/12/12 03:44:27;;;;;;;28.12;19.12;;;;;;;5.05;85.66;100955.53;1728145;81;21432;-69
2021/12/12 03:46:59;;;;;;;28.80;19.02;;;;;;;5.06;85.64;100956.38;1732017;82;23361;-65
2021/12/12 03:49:26;;;;;;;32.45;18.62;;;;;;;5.07;85.64;100961.53;1736658;81;21043;-66
2021/12/12 03:51:53;;;;;;;28.05;17.95;;;;;;;5.06;85.59;100956.38;1730136;82;21029;-66
2021/12/12 03:54:20;;;;;;;32.40;18.12;;;;;;;5.03;85.54;100956.07;1708430;83;21402;-66
2021/12/12 03:56:47;;;;;;;26.17;17.17;;;;;;;5.01;85.54;100951.80;1732957;81;21350;-66
2021/12/12 03:59:14;;;;;;;27.67;18.15;;;;;;;4.98;85.56;100951.50;1731036;81;21838;-66
2021/12/12 04:01:45;;;;;;;28.52;17.85;;;;;;;4.96;85.53;100952.03;1740437;81;20946;-66
2021/12/12 04:04:20;;;;;;;27.65;18.35;;;;;;;4.93;85.53;100957.89;1708014;83;21331;-66
2021/12/12 04:06:49;;;;;;;28.42;16.23;;;;;;;4.89;85.55;100963.70;1739150;81;21505;-66
2021/12/12 04:09:16;;;;;;;23.60;14.70;;;;;;;4.83;85.56;100970.09;1743798;81;20939;-66
2021/12/12 04:11:47;;;;;;;27.70;17.92;;;;;;;4.81;85.64;100964.52;1733696;81;21873;-66
2021/12/12 04:14:14;;;;;;;30.10;18.05;;;;;;;4.79;85.66;100966.36;1676723;84;21067;-66
2021/12/12 04:16:44;;;;;;;31.23;17.00;;;;;;;4.77;85.74;100957.28;1637824;85;21399;-66
2021/12/12 04:19:12;;;;;;;28.62;16.75;;;;;;;4.78;85.78;100955.50;1685876;85;21008;-65
2021/12/12 04:21:39;;;;;;;29.57;15.13;;;;;;;4.77;85.79;100954.66;1679892;83;21493;-66
2021/12/12 04:24:05;;;;;;;24.82;16.05;;;;;;;4.77;85.79;100957.73;1680594;83;22504;-66
2021/12/12 04:26:40;;;;;;;20.97;14.87;;;;;;;4.74;85.78;100953.50;1656634;85;21020;-68
2021/12/12 04:29:17;;;;;;;22.50;15.58;;;;;;;4.74;85.82;100956.58;1663301;84;21028;-66
2021/12/12 04:31:50;;;;;;;29.75;15.20;;;;;;;4.72;85.83;100953.16;1686508;85;21102;-66
2021/12/12 04:34:23;;;;;;;18.32;12.50;;;;;;;4.70;85.80;100962.85;1684094;83;21584;-65
2021/12/12 04:36:51;;;;;;;29.87;13.20;;;;;;;4.67;85.82;100960.39;1686421;83;22579;-66
2021/12/12 04:39:29;;;;;;;20.90;13.58;;;;;;;4.65;85.83;100975.31;1678907;84;21019;-66
2021/12/12 04:42:02;;;;;;;18.10;12.50;;;;;;;4.63;85.82;100977.97;1668812;85;21479;-66
2021/12/12 04:44:37;;;;;;;16.25;12.28;;;;;;;4.63;85.85;100979.73;1659421;84;21575;-66
2021/12/12 04:50:40;;;;;;;18.62;11.08;;;;;;;4.59;85.74;100969.89;1660679;85;21935;-66
2021/12/12 04:53:26;;;;;;;11.97;9.63;;;;;;;4.52;85.66;100978.92;1666390;85;21020;-66
2021/12/12 04:56:11;;;;;;;17.15;10.23;;;;;;;4.45;85.61;100985.36;1673332;83;20968;-66
2021/12/12 04:59:00;;;;;;;14.75;9.53;;;;;;;4.38;85.61;100987.39;1697079;83;21038;-65
2021/12/12 05:01:41;;;;;;;13.58;10.10;;;;;;;4.35;85.57;100987.99;1681802;83;21086;-65
2021/12/12 05:04:16;;;;;;;14.98;10.40;;;;;;;4.27;85.50;100988.33;1682727;83;21765;-65
2021/12/12 05:06:57;;;;;;;15.00;10.68;;;;;;;4.23;85.55;100986.28;1677392;85;20982;-65
2021/12/12 05:09:32;;;;;;;20.43;11.08;;;;;;;4.18;85.56;100985.64;1686162;85;21095;-64
2021/12/12 05:12:22;;;;;;;16.95;9.93;;;;;;;4.17;85.61;100989.64;1683817;83;21129;-65
2021/12/12 05:15:00;;;;;;;10.98;7.90;;;;;;;4.15;85.63;100985.78;1703079;82;20942;-66
2021/12/12 05:17:33;;;;;;;10.10;8.05;;;;;;;4.11;85.62;100984.66;1743171;82;21832;-66
2021/12/12 05:20:02;;;;;;;8.00;6.60;;;;;;;4.05;85.62;100988.83;1741712;82;21027;-65
2021/12/12 05:22:37;;;;;;;11.03;8.23;;;;;;;4.00;85.64;101001.66;1741090;82;20992;-65
2021/12/12 05:25:08;;;;;;;9.23;7.55;;;;;;;3.97;85.69;100996.56;1723476;82;21083;-65
2021/12/12 05:27:36;;;;;;;12.20;8.38;;;;;;;3.95;85.70;101003.59;1710804;83;21012;-65
2021/12/12 05:30:11;;;;;;;9.65;7.67;;;;;;;3.92;85.72;101000.27;1710803;84;21874;-65
2021/12/12 05:32:37;;;;;;;12.55;8.48;;;;;;;3.91;85.72;101004.65;1710696;84;21039;-65
2021/12/12 05:35:06;;;;;;;11.12;9.08;;;;;;;3.90;85.79;101004.72;1711443;82;21095;-65
2021/12/12 05:37:32;;;;;;;13.28;8.78;;;;;;;3.90;85.81;101009.48;1730921;82;21064;-65
2021/12/12 05:40:02;;;;;;;11.00;8.78;;;;;;;3.90;85.83;101008.64;1683536;85;20964;-64
2021/12/12 05:42:30;;;;;;;13.83;9.33;;;;;;;3.89;85.83;101006.94;1683459;85;21879;-66
2021/12/12 05:44:56;;;;;;;16.93;11.12;;;;;;;3.85;85.81;101008.81;1725762;82;21011;-65
2021/12/12 05:47:23;;;;;;;30.77;13.13;;;;;;;3.85;85.78;101013.19;1693011;83;20956;-65
2021/12/12 05:49:49;;;;;;;19.45;13.72;;;;;;;3.80;85.74;101012.09;1713087;83;20992;-65
2021/12/12 05:52:18;;;;;;;23.38;14.43;;;;;;;3.79;85.77;101015.62;1714302;82;21056;-66
2021/12/12 05:54:47;;;;;;;28.85;16.62;;;;;;;3.73;85.71;101014.09;1727063;82;21817;-66
2021/12/12 05:57:17;;;;;;;24.67;16.73;;;;;;;3.67;85.73;101027.42;1749637;82;21036;-66
2021/12/12 05:59:43;;;;;;;25.37;16.50;;;;;;;3.63;85.77;101025.83;1722264;82;21506;-66
2021/12/12 06:02:11;;;;;;;33.05;17.12;;;;;;;3.62;85.86;101031.97;1696138;84;20992;-66
2021/12/12 06:04:37;;;;;;;27.62;16.02;;;;;;;3.62;85.89;101031.13;1707284;82;21032;-66
2021/12/12 06:07:06;;;;;;;25.90;13.78;;;;;;;3.62;85.92;101037.65;1713514;82;21804;-65
2021/12/12 06:09:34;;;;;;;26.10;12.60;;;;;;;3.60;85.91;101038.17;1714442;82;20994;-66
2021/12/12 06:12:00;;;;;;;27.32;12.93;;;;;;;3.55;85.87;101039.64;1690769;82;20992;-66
2021/12/12 06:14:28;;;;;;;22.65;12.47;;;;;;;3.49;85.89;101034.69;1655331;84;21016;-67
2021/12/12 06:16:55;;;;;;;21.35;12.18;;;;;;;3.45;85.98;101037.86;1704162;84;21056;-66
2021/12/12 06:19:23;;;;;;;33.28;12.85;;;;;;;3.43;86.04;101039.68;1704279;83;21811;-66
2021/12/12 06:21:54;;;;;;;19.12;10.60;;;;;;;3.41;86.06;101038.05;1703990;84;20949;-66
2021/12/12 06:24:22;;;;;;;20.05;12.15;;;;;;;3.40;86.10;101032.44;1680707;84;20980;-66
2021/12/12 06:26:49;;;;;;;16.65;10.28;;;;;;;3.37;86.10;101041.22;1685430;84;20988;-66
2021/12/12 06:29:15;;;;;;;23.22;10.70;;;;;;;3.35;86.14;101035.20;1682344;84;21032;-66
2021/12/12 06:31:45;;;;;;;14.78;10.08;;;;;;;3.34;86.11;101036.58;1698729;83;21834;-69
2021/12/12 06:34:12;;;;;;;35.48;12.35;;;;;;;3.30;86.14;101033.25;1681328;84;21264;-69
2021/12/12 06:36:39;;;;;;;22.40;11.60;;;;;;;3.28;86.16;101038.11;1703468;84;20993;-68
2021/12/12 06:39:08;;;;;;;28.47;11.83;;;;;;;3.27;86.18;101046.86;1704579;83;21051;-68
2021/12/12 06:41:35;;;;;;;23.73;12.40;;;;;;;3.22;86.20;101060.09;1701718;83;20988;-67
2021/12/12 06:44:06;;;;;;;29.05;12.23;;;;;;;3.20;86.21;101059.77;1682416;84;21791;-67
2021/12/12 06:46:33;;;;;;;39.48;12.60;;;;;;;3.17;86.28;101059.41;1694570;84;20963;-67
2021/12/12 06:49:02;;;;;;;43.58;12.78;;;;;;;3.15;86.31;101063.39;1704018;84;20959;-66
2021/12/12 06:51:29;;;;;;;28.17;10.20;;;;;;;3.14;86.34;101059.53;1675329;84;20966;-67
2021/12/12 06:53:55;;;;;;;27.48;9.98;;;;;;;3.16;86.41;101061.63;1697334;84;21426;-67
2021/12/12 06:56:22;;;;;;;31.10;10.48;;;;;;;3.15;86.37;101071.67;1667626;85;21912;-66
2021/12/12 06:58:51;;;;;;;34.15;11.35;;;;;;;3.11;86.35;101075.32;1673237;84;20963;-67
2021/12/12 07:01:21;;;;;;;27.65;11.97;;;;;;;3.09;86.41;101073.23;1667398;85;21047;-66
2021/12/12 07:03:49;;;;;;;20.10;10.82;;;;;;;3.10;86.43;101079.69;1683039;84;21020;-68
2021/12/12 07:06:21;;;;;;;21.48;11.43;;;;;;;3.11;86.46;101077.93;1661629;84;21240;-66
2021/12/12 07:08:47;;;;;;;32.28;13.40;;;;;;;3.08;86.42;101074.95;1671537;84;21838;-67
2021/12/12 07:11:17;;;;;;;19.32;11.22;;;;;;;3.06;86.47;101070.25;1664030;84;21064;-65
2021/12/12 07:13:46;;;;;;;28.38;12.65;;;;;;;3.08;86.48;101083.24;1671239;82;21565;-66
2021/12/12 07:16:13;;;;;;;21.33;12.15;;;;;;;3.07;86.45;101081.09;1701133;84;21018;-67
2021/12/12 07:18:39;;;;;;;22.10;12.18;;;;;;;3.04;86.48;101077.30;1679134;82;21375;-66
2021/12/12 07:21:10;;;;;;;22.27;11.88;;;;;;;3.02;86.38;101080.87;1695258;82;21821;-67
2021/12/12 07:23:38;;;;;;;30.15;13.08;;;;;;;2.97;86.35;101088.02;1699101;83;21016;-66
2021/12/12 07:26:06;;;;;;;27.93;14.30;;;;;;;2.96;86.43;101089.77;1667542;85;21440;-68
2021/12/12 07:28:33;;;;;;;24.72;13.13;;;;;;;2.94;86.39;101085.06;1690823;83;21004;-67
2021/12/12 07:31:03;;;;;;;33.15;16.25;;;;;;;2.96;86.49;101091.53;1690435;85;20983;-68
2021/12/12 07:33:30;;;;;;;27.60;15.03;;;;;;;2.97;86.51;101094.53;1734437;82;22451;-68
2021/12/12 07:35:59;;;;;;;35.08;15.32;;;;;;;2.99;86.54;101095.33;1699022;82;21451;-68
2021/12/12 07:38:28;;;;;;;38.08;17.50;;;;;;;3.01;86.61;101100.91;1690430;84;21077;-68
2021/12/12 07:40:55;;;;;;;47.27;20.08;;;;;;;3.02;86.55;101101.76;1670087;84;21047;-69
2021/12/12 07:43:22;;;;;;;41.48;18.87;;;;;;;3.00;86.45;101104.88;1704219;83;20960;-70
2021/12/12 07:45:49;;;;;;;33.60;18.07;;;;;;;3.00;86.49;101103.58;1690253;83;21876;-69
2021/12/12 07:48:16;;;;;;;35.95;20.35;;;;;;;2.98;86.52;101091.86;1684560;84;21452;-68
2021/12/12 07:50:43;;;;;;;44.50;21.02;;;;;;;2.98;86.48;101110.59;1716564;82;21043;-69
2021/12/12 07:53:11;;;;;;;50.55;23.60;;;;;;;2.94;86.46;101120.30;1706412;82;20995;-67
2021/12/12 07:55:38;;;;;;;39.15;21.80;;;;;;;2.91;86.48;101124.78;1700430;83;21052;-67
2021/12/12 07:58:11;;;;;;;49.30;22.62;;;;;;;2.91;86.53;101119.11;1699652;83;22620;-68
2021/12/12 08:00:39;;;;;;;50.23;23.15;;;;;;;2.90;86.52;101115.25;1689843;84;21001;-69
2021/12/12 08:03:09;;;;;;;49.35;23.47;;;;;;;2.85;86.51;101124.08;1691578;82;21094;-69
2021/12/12 08:05:35;;;;;;;43.42;21.77;;;;;;;2.84;86.54;101118.92;1713496;82;21023;-68
2021/12/12 08:08:08;;;;;;;63.23;24.65;;;;;;;2.85;86.62;101121.47;1689696;84;21034;-68
2021/12/12 08:10:35;;;;;;;48.98;24.35;;;;;;;2.87;86.66;101117.04;1705280;82;21861;-68
2021/12/12 08:13:01;;;;;;;47.80;24.05;;;;;;;2.88;86.69;101120.50;1683913;83;21074;-68
2021/12/12 08:15:29;;;;;;;42.80;22.45;;;;;;;2.91;86.71;101128.24;1716580;83;21046;-68
2021/12/12 08:17:56;;;;;;;49.03;22.37;;;;;;;2.91;86.67;101119.56;1716736;83;21459;-68
2021/12/12 08:20:24;;;;;;;45.20;22.02;;;;;;;2.90;86.65;101117.86;1720744;81;21112;-69
2021/12/12 08:22:50;;;;;;;35.00;20.55;;;;;;;2.86;86.62;101112.73;1706551;81;21876;-70
2021/12/12 08:25:17;;;;;;;64.70;22.45;;;;;;;2.86;86.65;101114.04;1701406;81;21045;-69
2021/12/12 08:27:44;;;;;;;44.98;23.12;;;;;;;2.86;86.62;101100.99;1716519;83;21067;-68
2021/12/12 08:30:12;;;;;;;48.23;22.07;;;;;;;2.87;86.69;101108.36;1716622;83;21047;-68
2021/12/12 08:32:39;;;;;;;36.03;20.25;;;;;;;2.89;86.74;101097.41;1716888;83;21497;-70
2021/12/12 08:35:08;;;;;;;32.25;20.08;;;;;;;2.91;86.74;101085.19;1711746;83;22445;-68
2021/12/12 08:37:34;;;;;;;32.48;18.98;;;;;;;2.89;86.69;101090.89;1738353;81;21063;-67
2021/12/12 08:40:03;;;;;;;45.33;19.55;;;;;;;2.87;86.63;101085.73;1725034;81;21268;-68
2021/12/12 08:42:31;;;;;;;61.10;20.02;;;;;;;2.85;86.60;101096.69;1711352;81;21019;-69
2021/12/12 08:44:59;;;;;;;56.60;20.27;;;;;;;2.84;86.59;101092.83;1725950;83;21039;-68
2021/12/12 08:47:25;;;;;;;49.55;18.85;;;;;;;2.83;86.56;101089.83;1723798;82;22503;-68
2021/12/12 08:49:52;;;;;;;38.90;16.80;;;;;;;2.81;86.56;101088.58;1699865;83;21527;-70
2021/12/12 08:52:30;;;;;;;23.67;14.68;;;;;;;2.80;86.59;101092.10;1703009;81;20928;-68
2021/12/12 08:54:55;;;;;;;29.15;14.38;;;;;;;2.79;86.55;101096.04;1698558;84;21071;-69
2021/12/12 08:57:34;;;;;;;30.97;13.53;;;;;;;2.73;86.46;101087.16;1698732;83;21008;-68
2021/12/12 09:00:05;;;;;;;40.15;14.90;;;;;;;2.68;86.41;101084.69;1717394;81;22253;-68
2021/12/12 09:02:33;;;;;;;19.27;12.82;;;;;;;2.62;86.37;101082.31;1699383;83;21469;-69
2021/12/12 09:05:08;;;;;;;32.40;13.05;;;;;;;2.59;86.43;101081.95;1693716;83;21530;-69
2021/12/12 09:07:38;;;;;;;44.83;13.88;;;;;;;2.58;86.48;101089.83;1710376;83;21027;-69
2021/12/12 09:10:13;;;;;;;51.60;14.25;;;;;;;2.55;86.45;101088.19;1716671;83;21051;-70
2021/12/12 09:12:48;;;;;;;62.65;14.47;;;;;;;2.54;86.43;101088.25;1703586;83;21851;-69
2021/12/12 09:15:20;;;;;;;53.55;14.53;;;;;;;2.53;86.50;101076.12;1697876;84;21010;-70
2021/12/12 09:17:53;;;;;;;49.83;13.93;;;;;;;2.53;86.50;101076.12;1697693;83;21014;-69
2021/12/12 09:20:27;;;;;;;71.72;14.40;;;;;;;2.51;86.42;101081.81;1683722;83;21024;-69
2021/12/12 09:23:01;;;;;;;31.37;15.15;;;;;;;2.47;86.42;101062.83;1656871;86;22314;-71
2021/12/12 09:25:49;;;;;;;41.35;13.85;;;;;;;2.47;86.45;101067.20;1634669;86;21889;-68
2021/12/12 09:28:31;;;;;;;44.98;14.75;;;;;;;2.43;86.41;101062.55;1662346;84;21496;-67
2021/12/12 09:31:06;;;;;;;23.85;13.10;;;;;;;2.39;86.39;101071.36;1647397;86;21012;-66
2021/12/12 09:33:53;;;;;;;24.75;12.45;;;;;;;2.35;86.36;101071.53;1662839;84;21093;-67
2021/12/12 09:36:42;;;;;;;56.02;14.38;;;;;;;2.31;86.39;101072.08;1661342;85;21032;-66
2021/12/12 09:39:13;;;;;;;18.17;11.65;;;;;;;2.27;86.30;101067.43;1652271;86;23304;-64
2021/12/12 09:41:52;;;;;;;30.12;13.08;;;;;;;2.25;86.38;101060.13;1660718;86;20968;-68
2021/12/12 09:44:49;;;;;;;28.85;15.00;;;;;;;2.22;86.31;101063.27;1672339;84;21056;-69
2021/12/12 09:53:31;;;;;;;25.12;14.95;;;;;;;2.21;86.44;101049.84;1660913;86;22650;-69
2021/12/12 09:56:08;;;;;;;23.52;15.08;;;;;;;2.21;86.45;101053.74;1671106;85;21074;-70
2021/12/12 09:58:50;;;;;;;22.40;15.28;;;;;;;2.21;86.50;101042.86;1661995;84;21057;-70
2021/12/12 10:01:24;;;;;;;18.07;14.30;;;;;;;2.22;86.46;101052.41;1634676;87;21074;-68
2021/12/12 10:04:21;;;;;;;25.20;16.40;;;;;;;2.24;86.51;101059.73;1643584;86;21054;-69
2021/12/12 10:07:12;;;;;;;26.17;15.20;;;;;;;2.26;86.49;101051.39;1634465;86;21861;-69
2021/12/12 10:09:48;;;;;;;25.08;16.80;;;;;;;2.26;86.39;101044.88;1691561;84;21022;-70
2021/12/12 10:12:23;;;;;;;23.70;16.87;;;;;;;2.18;86.14;101035.62;1642416;87;34193;-69
2021/12/12 10:15:08;;;;;;;25.57;17.02;;;;;;;2.12;86.16;101038.42;1671345;85;21038;-69
2021/12/12 10:17:51;;;;;;;33.78;18.05;;;;;;;2.12;86.20;101035.81;1725436;83;21077;-70
2021/12/12 10:20:28;;;;;;;39.53;18.77;;;;;;;2.10;86.14;101038.92;1726939;83;22652;-69
2021/12/12 10:23:18;;;;;;;28.35;16.85;;;;;;;2.12;86.24;101031.91;1704879;83;21662;-69
2021/12/12 10:25:55;;;;;;;30.80;17.80;;;;;;;2.13;86.21;101031.03;1729279;81;21016;-69
2021/12/12 10:28:31;;;;;;;28.20;18.37;;;;;;;2.12;86.16;101031.91;1700641;81;21264;-68
2021/12/12 10:31:22;;;;;;;29.27;17.77;;;;;;;2.09;86.08;101034.17;1701057;83;21077;-68
2021/12/12 10:33:59;;;;;;;24.07;17.00;;;;;;;2.06;86.06;101035.59;1721967;82;23110;-68
2021/12/12 10:37:09;;;;;;;46.33;18.57;;;;;;;2.03;86.08;101035.70;1726356;82;21105;-67
2021/12/12 10:39:52;;;;;;;31.60;18.42;;;;;;;2.02;86.10;101045.69;1726550;83;21010;-67
2021/12/12 10:42:28;;;;;;;26.73;18.32;;;;;;;2.00;86.12;101041.84;1735936;81;21038;-67
2021/12/12 10:45:06;;;;;;;29.65;17.32;;;;;;;2.03;86.14;101042.21;1709792;83;21058;-69
2021/12/12 10:48:05;;;;;;;31.52;19.70;;;;;;;2.05;86.13;101035.19;1713016;83;21047;-69
2021/12/12 10:51:15;;;;;;;37.95;18.30;;;;;;;2.00;85.99;101017.09;1706184;83;21035;-67
2021/12/12 10:54:03;;;;;;;25.95;16.73;;;;;;;1.96;86.00;101015.95;1705531;82;21465;-66
2021/12/12 10:56:46;;;;;;;23.70;16.80;;;;;;;1.92;85.96;101021.70;1735877;82;21721;-65
2021/12/12 10:59:33;;;;;;;32.33;17.82;;;;;;;1.89;85.91;101036.14;1706293;81;20934;-65
2021/12/12 11:02:09;;;;;;;30.95;18.02;;;;;;;1.86;85.88;101039.31;1698553;84;21866;-65
2021/12/12 11:04:48;;;;;;;32.80;20.57;;;;;;;1.82;85.81;101045.50;1698305;84;21019;-66
2021/12/12 11:07:31;;;;;;;31.42;19.48;;;;;;;1.79;85.79;101044.31;1698019;84;21027;-65
2021/12/12 11:10:09;;;;;;;29.75;18.85;;;;;;;1.76;85.81;101037.91;1713269;81;21067;-66
2021/12/12 11:12:42;;;;;;;29.75;18.85;;;;;;;1.77;85.84;101046.97;1731512;81;21077;-64
2021/12/12 11:15:26;;;;;;;33.53;20.02;;;;;;;1.75;85.78;101053.13;1679718;83;21865;-66
2021/12/12 11:18:16;;;;;;;29.87;20.00;;;;;;;1.74;85.77;101043.17;1707413;83;21006;-67
2021/12/12 11:20:48;;;;;;;39.48;19.62;;;;;;;1.75;85.78;101047.92;1681271;85;21041;-66
2021/12/12 11:23:34;;;;;;;28.75;17.65;;;;;;;1.73;85.78;101048.80;1678398;85;21077;-66
2021/12/12 11:26:25;;;;;;;35.63;18.67;;;;;;;1.71;85.77;101038.89;1689531;85;21571;-67
2021/12/12 11:28:58;;;;;;;34.85;19.73;;;;;;;1.72;85.82;101034.53;1714761;83;21849;-65
2021/12/12 11:31:51;;;;;;;34.58;20.75;;;;;;;1.69;85.76;101026.38;1715173;83;21015;-67
2021/12/12 11:34:18;;;;;;;37.23;18.55;;;;;;;1.68;85.76;101026.43;1723562;82;20983;-66
2021/12/12 11:36:58;;;;;;;28.05;17.52;;;;;;;1.70;85.81;101022.02;1713486;83;21016;-66
2021/12/12 11:39:46;;;;;;;29.72;17.00;;;;;;;1.69;85.71;101024.22;1712255;83;20951;-68
2021/12/12 11:42:20;;;;;;;28.73;17.48;;;;;;;1.62;85.58;101026.16;1713521;83;21834;-70
2021/12/12 11:45:04;;;;;;;29.07;17.80;;;;;;;1.55;85.53;101025.12;1713350;83;21067;-69
2021/12/12 11:48:08;;;;;;;35.58;19.48;;;;;;;1.51;85.52;101028.26;1713920;82;21011;-70
2021/12/12 11:50:47;;;;;;;27.03;16.13;;;;;;;1.47;85.49;101025.81;1734836;82;21437;-70
2021/12/12 11:53:49;;;;;;;34.08;18.48;;;;;;;1.47;85.54;101010.20;1705450;83;21118;-68
2021/12/12 11:56:32;;;;;;;38.10;20.05;;;;;;;1.49;85.58;101011.84;1679672;85;23103;-70
2021/12/12 11:59:38;;;;;;;39.70;21.20;;;;;;;1.47;85.56;101005.84;1698249;82;21046;-69
2021/12/12 12:02:42;;;;;;;33.75;18.25;;;;;;;1.49;85.66;100995.38;1719032;82;21089;-72
2021/12/12 12:05:44;;;;;;;36.15;19.35;;;;;;;1.51;85.67;100999.63;1730397;82;21425;-72
2021/12/12 12:08:29;;;;;;;56.92;20.88;;;;;;;1.52;85.67;101000.47;1726702;82;21042;-71
2021/12/12 12:11:20;;;;;;;55.52;20.12;;;;;;;1.52;85.62;100998.72;1706203;83;22308;-70